Time;durP1;ratioP1;P1;durP2;ratioP2;P2;SDS_P1;SDS_P2;PMS_P1;PMS_P2;Temp;Humidity;BMP_temperature;BMP_pressure;BME280_temperature;BME280_humidity;BME280_pressure;Samples;Min_cycle;Max_cycle;Signal;HPM_P1;HPM_P2
2022/01/03 00:00:25;;;;;;;;;;;8.10;99.90;;;;;;5134484;27;19965;-66
2022/01/03 00:02:52;;;;;;;;;;;8.60;99.90;;;;;;5147342;27;19934;-56
2022/01/03 00:05:17;;;;;;;;;;;8.10;99.90;;;;;;5121829;27;19974;-56
2022/01/03 00:07:44;;;;;;;;;;;8.10;99.90;;;;;;5139152;27;19981;-60
2022/01/03 00:10:10;;;;;;;;;;;8.10;99.90;;;;;;5146438;27;19927;-58
2022/01/03 00:12:36;;;;;;;;;;;8.10;99.90;;;;;;5134483;27;19931;-58
2022/01/03 00:15:03;;;;;;;;;;;8.20;99.90;;;;;;5140982;27;19927;-66
2022/01/03 00:17:29;;;;;;;;;;;8.20;99.90;;;;;;5143348;27;20025;-58
2022/01/03 00:19:54;;;;;;;;;;;8.50;99.90;;;;;;5134545;27;20353;-62
2022/01/03 00:22:21;;;;;;;;;;;8.30;99.90;;;;;;5146845;27;20421;-62
2022/01/03 00:24:52;;;;;;;;;;;8.30;99.90;;;;;;5132596;27;19927;-60
2022/01/03 00:27:19;;;;;;;;;;;8.30;99.90;;;;;;5141311;27;19952;-57
2022/01/03 00:29:46;;;;;;;;;;;8.40;99.90;;;;;;5136361;27;19931;-60
2022/01/03 00:32:12;;;;;;;;;;;8.40;99.90;;;;;;5136635;27;19927;-59
2022/01/03 00:34:38;;;;;;;;;;;8.60;99.90;;;;;;5144578;27;19977;-63
2022/01/03 00:37:07;;;;;;;;;;;8.60;99.90;;;;;;5139733;27;19978;-62
2022/01/03 00:39:33;;;;;;;;;;;8.60;99.90;;;;;;5137695;27;19941;-57
2022/01/03 00:41:58;;;;;;;;;;;8.50;99.90;;;;;;5132897;27;20014;-58
2022/01/03 00:44:25;;;;;;;;;;;8.60;99.90;;;;;;5133242;27;19973;-57
2022/01/03 00:46:52;;;;;;;;;;;8.70;99.90;;;;;;5142597;27;19928;-57
2022/01/03 00:49:17;;;;;;;;;;;8.70;99.90;;;;;;5141002;27;20034;-56
2022/01/03 00:51:43;;;;;;;;;;;8.70;99.90;;;;;;5135715;27;20046;-59
2022/01/03 00:54:09;;;;;;;;;;;8.80;99.90;;;;;;5147564;27;20449;-59
2022/01/03 00:56:38;;;;;;;;;;;8.80;99.90;;;;;;5134330;27;19981;-56
2022/01/03 00:59:07;;;;;;;;;;;8.90;99.90;;;;;;5141140;27;19927;-56
2022/01/03 01:01:37;;;;;;;;;;;8.90;99.90;;;;;;5129407;27;19927;-57
2022/01/03 01:04:06;;;;;;;;;;;8.90;99.90;;;;;;5131399;27;19928;-56
2022/01/03 01:06:33;;;;;;;;;;;8.90;99.90;;;;;;5145465;27;19935;-57
2022/01/03 01:09:01;;;;;;;;;;;9.00;99.90;;;;;;5129969;27;19927;-56
2022/01/03 01:11:28;;;;;;;;;;;9.00;99.90;;;;;;5128974;27;19935;-56
2022/01/03 01:13:54;;;;;;;;;;;9.00;99.90;;;;;;5143404;27;19982;-56
2022/01/03 01:16:19;;;;;;;;;;;9.00;99.90;;;;;;5129410;27;19931;-56
2022/01/03 01:18:45;;;;;;;;;;;9.00;99.90;;;;;;5135068;27;19931;-56
2022/01/03 01:21:11;;;;;;;;;;;9.00;99.90;;;;;;5139329;27;19962;-58
2022/01/03 01:23:40;;;;;;;;;;;9.00;99.90;;;;;;5129227;27;19927;-57
2022/01/03 01:28:55;;;;;;;;;;;9.10;99.90;;;;;;5109659;27;20368;-57
2022/01/03 01:31:22;;;;;;;;;;;9.00;99.90;;;;;;5138275;27;19927;-56
2022/01/03 01:33:50;;;;;;;;;;;9.00;99.90;;;;;;5138541;27;19969;-56
2022/01/03 01:36:16;;;;;;;;;;;9.00;99.90;;;;;;5132724;27;19966;-56
2022/01/03 01:38:44;;;;;;;;;;;9.00;99.90;;;;;;5143781;27;19975;-56
2022/01/03 01:41:09;;;;;;;;;;;9.00;99.90;;;;;;5131002;27;19934;-56
2022/01/03 01:43:36;;;;;;;;;;;9.00;99.90;;;;;;5127725;27;19932;-57
2022/01/03 01:46:08;;;;;;;;;;;9.00;99.90;;;;;;5145200;27;19974;-57
2022/01/03 01:48:35;;;;;;;;;;;9.20;99.90;;;;;;5133967;27;20068;-57
2022/01/03 01:51:01;;;;;;;;;;;9.00;99.90;;;;;;5140969;27;20404;-57
2022/01/03 01:53:27;;;;;;;;;;;9.00;99.90;;;;;;5140280;27;19927;-59
2022/01/03 01:55:54;;;;;;;;;;;9.00;99.90;;;;;;5133307;27;19934;-55
2022/01/03 01:58:28;;;;;;;;;;;9.00;99.90;;;;;;5145458;27;20042;-56
2022/01/03 02:01:04;;;;;;;;;;;9.00;99.90;;;;;;5136732;27;19931;-56
2022/01/03 02:03:45;;;;;;;;;;;9.00;99.90;;;;;;5145245;27;20035;-56
2022/01/03 02:06:20;;;;;;;;;;;9.00;99.90;;;;;;5132457;27;19934;-57
2022/01/03 02:09:05;;;;;;;;;;;9.00;99.90;;;;;;5133479;27;19935;-56
2022/01/03 02:11:37;;;;;;;;;;;9.00;99.90;;;;;;5128725;27;19950;-57
2022/01/03 02:14:03;;;;;;;;;;;9.00;99.90;;;;;;5144849;27;19927;-56
2022/01/03 02:16:31;;;;;;;;;;;9.10;99.90;;;;;;5132741;27;19927;-56
2022/01/03 02:18:57;;;;;;;;;;;9.10;99.90;;;;;;5141367;27;20048;-56
2022/01/03 02:21:22;;;;;;;;;;;9.10;99.90;;;;;;5138995;27;20375;-57
2022/01/03 02:23:48;;;;;;;;;;;9.20;99.90;;;;;;5134730;27;19931;-59
2022/01/03 02:26:14;;;;;;;;;;;9.10;99.90;;;;;;5132171;27;19927;-56
2022/01/03 02:28:39;;;;;;;;;;;9.10;99.90;;;;;;5142597;27;19927;-63
2022/01/03 02:31:05;;;;;;;;;;;9.10;99.90;;;;;;5133466;27;19927;-57
2022/01/03 02:33:31;;;;;;;;;;;9.10;99.90;;;;;;5139486;27;19980;-57
2022/01/03 02:35:57;;;;;;;;;;;9.10;99.90;;;;;;5130216;27;20010;-58
2022/01/03 02:38:23;;;;;;;;;;;9.10;99.90;;;;;;5145580;27;20056;-66
2022/01/03 02:40:48;;;;;;;;;;;9.10;99.90;;;;;;5130346;27;19950;-60
2022/01/03 02:43:14;;;;;;;;;;;9.20;99.90;;;;;;5126518;27;21838;-61
2022/01/03 02:45:40;;;;;;;;;;;9.10;99.90;;;;;;5128004;28;19935;-63
2022/01/03 02:48:11;;;;;;;;;;;9.10;99.90;;;;;;5144420;27;19931;-60
2022/01/03 02:50:37;;;;;;;;;;;9.10;99.90;;;;;;5128589;27;20012;-57
2022/01/03 02:53:02;;;;;;;;;;;9.10;99.90;;;;;;5136298;27;19927;-64
2022/01/03 02:55:28;;;;;;;;;;;9.10;99.90;;;;;;5136438;27;20006;-61
2022/01/03 02:57:55;;;;;;;;;;;9.20;99.90;;;;;;5136658;27;19927;-56
2022/01/03 03:00:22;;;;;;;;;;;9.10;99.90;;;;;;5149102;27;19931;-57
2022/01/03 03:02:48;;;;;;;;;;;9.10;99.90;;;;;;5135620;27;20053;-60
2022/01/03 03:05:14;;;;;;;;;;;9.10;99.90;;;;;;5143105;27;20408;-59
2022/01/03 03:07:40;;;;;;;;;;;9.00;99.90;;;;;;5136915;27;19934;-57
2022/01/03 03:10:13;;;;;;;;;;;9.10;99.90;;;;;;5133972;27;19927;-63
2022/01/03 03:12:39;;;;;;;;;;;9.00;99.90;;;;;;5137754;27;20060;-57
2022/01/03 03:15:05;;;;;;;;;;;9.10;99.90;;;;;;5142425;27;20390;-57
2022/01/03 03:17:31;;;;;;;;;;;9.10;99.90;;;;;;5144758;27;20277;-56
2022/01/03 03:19:58;;;;;;;;;;;9.10;99.90;;;;;;5135753;27;19953;-59
2022/01/03 03:22:25;;;;;;;;;;;9.10;99.90;;;;;;5149029;27;19928;-61
2022/01/03 03:24:51;;;;;;;;;;;9.20;99.90;;;;;;5130490;27;20408;-62
2022/01/03 03:27:16;;;;;;;;;;;9.00;99.90;;;;;;5142473;27;19953;-60
2022/01/03 03:29:49;;;;;;;;;;;9.00;99.90;;;;;;5137203;27;20381;-65
2022/01/03 03:32:16;;;;;;;;;;;9.00;99.90;;;;;;5143054;27;19927;-56
2022/01/03 03:34:42;;;;;;;;;;;9.00;99.90;;;;;;5136283;27;20005;-63
2022/01/03 03:37:09;;;;;;;;;;;9.00;99.90;;;;;;5139864;27;19934;-63
2022/01/03 03:39:36;;;;;;;;;;;8.90;99.90;;;;;;5138728;27;19928;-63
2022/01/03 03:42:03;;;;;;;;;;;8.90;99.90;;;;;;5133581;27;19935;-57
2022/01/03 03:44:29;;;;;;;;;;;8.90;99.90;;;;;;5132642;27;19927;-58
2022/01/03 03:46:54;;;;;;;;;;;8.80;99.90;;;;;;5137810;27;20258;-59
2022/01/03 03:49:20;;;;;;;;;;;8.80;99.90;;;;;;5140226;27;20315;-56
2022/01/03 03:51:45;;;;;;;;;;;8.80;99.90;;;;;;5146155;27;19974;-57
2022/01/03 03:54:11;;;;;;;;;;;8.80;99.90;;;;;;5134815;27;19942;-56
2022/01/03 03:56:36;;;;;;;;;;;8.70;99.90;;;;;;5144773;27;19927;-56
2022/01/03 03:59:02;;;;;;;;;;;8.70;99.90;;;;;;5143018;27;20464;-58
2022/01/03 04:01:27;;;;;;;;;;;8.70;99.90;;;;;;5143606;27;19933;-57
2022/01/03 04:03:53;;;;;;;;;;;8.70;99.90;;;;;;5147822;27;19974;-57
2022/01/03 04:06:19;;;;;;;;;;;8.70;99.90;;;;;;5134151;27;19935;-56
2022/01/03 04:08:45;;;;;;;;;;;8.60;99.90;;;;;;5133918;27;19958;-56
2022/01/03 04:11:14;;;;;;;;;;;8.60;99.90;;;;;;5140780;27;19927;-56
2022/01/03 04:13:40;;;;;;;;;;;8.70;99.90;;;;;;5137556;27;20324;-57
2022/01/03 04:16:06;;;;;;;;;;;8.60;99.90;;;;;;5147766;27;19942;-59
2022/01/03 04:18:32;;;;;;;;;;;8.60;99.90;;;;;;5135209;27;19923;-59
2022/01/03 04:20:58;;;;;;;;;;;8.60;99.90;;;;;;5143264;27;19934;-58
2022/01/03 04:23:23;;;;;;;;;;;8.60;99.90;;;;;;5142433;27;20288;-58
2022/01/03 04:25:51;;;;;;;;;;;8.60;99.90;;;;;;5146153;27;20316;-55
2022/01/03 04:28:17;;;;;;;;;;;8.60;99.90;;;;;;5134146;27;19928;-57
2022/01/03 04:30:43;;;;;;;;;;;8.60;99.90;;;;;;5144933;27;19952;-57
2022/01/03 04:33:09;;;;;;;;;;;8.60;99.90;;;;;;5139585;27;20354;-58
2022/01/03 04:35:34;;;;;;;;;;;8.60;99.90;;;;;;5135988;27;19927;-57
2022/01/03 04:38:00;;;;;;;;;;;8.70;99.90;;;;;;5147153;27;19927;-56
2022/01/03 04:40:26;;;;;;;;;;;9.40;99.90;;;;;;5132180;27;19937;-62
2022/01/03 04:42:51;;;;;;;;;;;8.70;99.90;;;;;;5130295;27;20031;-64
2022/01/03 04:45:17;;;;;;;;;;;8.70;99.90;;;;;;5141457;27;20846;-66
2022/01/03 04:47:43;;;;;;;;;;;8.70;99.90;;;;;;5143448;27;20415;-61
2022/01/03 04:50:09;;;;;;;;;;;8.70;99.90;;;;;;5133855;27;19927;-66
2022/01/03 04:52:34;;;;;;;;;;;8.70;99.90;;;;;;5145792;27;20284;-58
2022/01/03 04:55:01;;;;;;;;;;;8.70;99.90;;;;;;5138815;27;20452;-61
2022/01/03 04:57:26;;;;;;;;;;;8.70;99.90;;;;;;5136469;27;20014;-64
2022/01/03 04:59:52;;;;;;;;;;;8.70;99.90;;;;;;5144605;27;20022;-62
2022/01/03 05:02:18;;;;;;;;;;;8.70;99.90;;;;;;5133325;27;20019;-61
2022/01/03 05:04:43;;;;;;;;;;;8.80;99.90;;;;;;5131511;27;20396;-64
2022/01/03 05:07:09;;;;;;;;;;;8.70;99.90;;;;;;5135621;27;20297;-62
2022/01/03 05:09:34;;;;;;;;;;;8.70;99.90;;;;;;5131554;27;19934;-58
2022/01/03 05:12:00;;;;;;;;;;;8.70;99.90;;;;;;5129432;27;19927;-56
2022/01/03 05:14:26;;;;;;;;;;;8.70;99.90;;;;;;5143737;27;19931;-64
2022/01/03 05:16:52;;;;;;;;;;;8.80;99.90;;;;;;5137229;27;20440;-59
2022/01/03 05:19:18;;;;;;;;;;;8.80;99.90;;;;;;5137767;27;20000;-64
2022/01/03 05:21:46;;;;;;;;;;;8.80;99.90;;;;;;5129817;27;20018;-57
2022/01/03 05:24:12;;;;;;;;;;;8.80;99.90;;;;;;5143932;27;20052;-63
2022/01/03 05:26:37;;;;;;;;;;;8.70;99.90;;;;;;5144658;27;19934;-64
2022/01/03 05:29:03;;;;;;;;;;;8.70;99.90;;;;;;5137805;27;19927;-59
2022/01/03 05:31:29;;;;;;;;;;;9.00;99.90;;;;;;5137080;27;19934;-65
2022/01/03 05:33:54;;;;;;;;;;;8.70;99.90;;;;;;5144008;27;19933;-59
2022/01/03 05:36:20;;;;;;;;;;;8.90;99.90;;;;;;5132314;27;20273;-68
2022/01/03 05:38:46;;;;;;;;;;;8.60;99.90;;;;;;5141847;27;19938;-63
2022/01/03 05:41:11;;;;;;;;;;;8.60;99.90;;;;;;5131070;27;19928;-63
2022/01/03 05:43:37;;;;;;;;;;;8.60;99.90;;;;;;5129105;27;19923;-59
2022/01/03 05:46:02;;;;;;;;;;;8.60;99.90;;;;;;5144511;27;20323;-60
2022/01/03 05:48:28;;;;;;;;;;;8.50;99.90;;;;;;5132565;27;19934;-55
2022/01/03 05:50:54;;;;;;;;;;;8.60;99.90;;;;;;5142502;27;20029;-56
2022/01/03 05:53:19;;;;;;;;;;;8.60;99.90;;;;;;5131658;27;19928;-65
2022/01/03 05:55:46;;;;;;;;;;;8.60;99.90;;;;;;5143860;27;20335;-58
2022/01/03 05:58:12;;;;;;;;;;;8.70;99.90;;;;;;5132152;27;19927;-65
2022/01/03 06:00:38;;;;;;;;;;;8.50;99.90;;;;;;5143983;27;19954;-56
2022/01/03 06:03:04;;;;;;;;;;;8.50;99.90;;;;;;5132018;27;20356;-59
2022/01/03 06:05:52;;;;;;;;;;;8.50;99.90;;;;;;5135421;27;19987;-58
2022/01/03 06:08:18;;;;;;;;;;;8.50;99.90;;;;;;5132488;27;20016;-63
2022/01/03 06:10:44;;;;;;;;;;;8.50;99.90;;;;;;5135028;27;19927;-65
2022/01/03 06:13:09;;;;;;;;;;;8.60;99.90;;;;;;5139478;27;19933;-63
2022/01/03 06:15:39;;;;;;;;;;;8.50;99.90;;;;;;5142552;27;20280;-61
2022/01/03 06:18:05;;;;;;;;;;;8.60;99.90;;;;;;5131775;27;19927;-63
2022/01/03 06:20:32;;;;;;;;;;;8.60;99.90;;;;;;5144344;27;20350;-62
2022/01/03 06:22:58;;;;;;;;;;;8.60;99.90;;;;;;5137191;27;20058;-61
2022/01/03 06:25:23;;;;;;;;;;;8.80;99.90;;;;;;5141946;27;20026;-58
2022/01/03 06:27:49;;;;;;;;;;;8.60;99.90;;;;;;5133286;27;19927;-62
2022/01/03 06:30:14;;;;;;;;;;;8.60;99.90;;;;;;5142982;27;19927;-66
2022/01/03 06:32:40;;;;;;;;;;;8.70;99.90;;;;;;5147722;27;19966;-62
2022/01/03 06:35:06;;;;;;;;;;;8.60;99.90;;;;;;5143585;27;19992;-68
2022/01/03 06:37:32;;;;;;;;;;;8.60;99.90;;;;;;5143124;27;19927;-64
2022/01/03 06:39:57;;;;;;;;;;;8.60;99.90;;;;;;5138102;27;20613;-64
2022/01/03 06:42:23;;;;;;;;;;;8.60;99.90;;;;;;5148964;27;19927;-65
2022/01/03 06:44:49;;;;;;;;;;;8.60;99.90;;;;;;5139596;27;19926;-62
2022/01/03 06:47:15;;;;;;;;;;;8.60;99.90;;;;;;5141567;27;19923;-66
2022/01/03 06:49:41;;;;;;;;;;;8.60;99.90;;;;;;5144209;27;19934;-61
2022/01/03 06:52:07;;;;;;;;;;;8.60;99.90;;;;;;5145299;27;19927;-62
2022/01/03 06:54:33;;;;;;;;;;;8.60;99.90;;;;;;5136713;27;19931;-62
2022/01/03 06:56:59;;;;;;;;;;;9.10;99.90;;;;;;5143712;27;20437;-67
2022/01/03 06:59:24;;;;;;;;;;;8.60;99.90;;;;;;5142559;27;20396;-64
2022/01/03 07:01:50;;;;;;;;;;;8.60;99.90;;;;;;5148494;27;19931;-58
2022/01/03 07:04:16;;;;;;;;;;;8.70;99.90;;;;;;5146588;27;20440;-62
2022/01/03 07:06:41;;;;;;;;;;;8.50;99.90;;;;;;5135584;27;19928;-66
2022/01/03 07:09:07;;;;;;;;;;;8.50;99.90;;;;;;5141246;27;19964;-67
2022/01/03 07:11:33;;;;;;;;;;;8.90;99.90;;;;;;5140373;27;19977;-57
2022/01/03 07:18:56;;;;;;;;;;;8.50;99.90;;;;;;5140667;27;20290;-57
2022/01/03 07:19:36;;;;;;;;;;;9.00;99.90;;;;;;5137281;27;19945;-59
2022/01/03 07:22:05;;;;;;;;;;;8.40;99.90;;;;;;5132530;27;20030;-62
2022/01/03 07:24:31;;;;;;;;;;;8.40;99.90;;;;;;5142245;27;20409;-64
2022/01/03 07:27:00;;;;;;;;;;;8.40;99.90;;;;;;5130555;27;19927;-55
2022/01/03 07:29:25;;;;;;;;;;;8.40;99.90;;;;;;5133204;27;19950;-60
2022/01/03 07:31:51;;;;;;;;;;;8.40;99.90;;;;;;5142101;27;20381;-56
2022/01/03 07:34:16;;;;;;;;;;;8.40;99.90;;;;;;5137651;27;19966;-65
2022/01/03 07:36:42;;;;;;;;;;;8.40;99.90;;;;;;5143195;27;19934;-63
2022/01/03 07:39:07;;;;;;;;;;;8.50;99.90;;;;;;5143468;27;19927;-57
2022/01/03 07:41:33;;;;;;;;;;;8.50;99.90;;;;;;5137365;27;19927;-57
2022/01/03 07:43:58;;;;;;;;;;;8.50;99.90;;;;;;5135168;27;20361;-64
2022/01/03 07:46:24;;;;;;;;;;;9.10;99.90;;;;;;5139374;27;19927;-65
2022/01/03 07:48:49;;;;;;;;;;;8.60;99.90;;;;;;5122774;27;19928;-67
2022/01/03 07:51:15;;;;;;;;;;;8.60;99.90;;;;;;5132167;27;19933;-66
2022/01/03 07:53:42;;;;;;;;;;;8.60;99.90;;;;;;5145098;27;19974;-69
2022/01/03 07:56:09;;;;;;;;;;;8.70;99.90;;;;;;5134220;27;19927;-69
2022/01/03 07:58:35;;;;;;;;;;;8.70;99.90;;;;;;5134811;27;19930;-65
2022/01/03 08:01:01;;;;;;;;;;;8.90;99.90;;;;;;5131669;27;19927;-62
2022/01/03 08:03:26;;;;;;;;;;;8.70;99.90;;;;;;5139291;27;19938;-56
2022/01/03 08:05:52;;;;;;;;;;;8.70;99.90;;;;;;5137923;27;19927;-59
2022/01/03 08:08:17;;;;;;;;;;;8.70;99.90;;;;;;5136951;27;20013;-63
2022/01/03 08:10:45;;;;;;;;;;;8.70;99.90;;;;;;5130630;27;19927;-63
2022/01/03 08:13:10;;;;;;;;;;;8.80;99.90;;;;;;5138801;27;19988;-56
2022/01/03 08:15:38;;;;;;;;;;;9.00;99.90;;;;;;5133426;27;20435;-56
2022/01/03 08:18:03;;;;;;;;;;;8.90;99.90;;;;;;5139795;27;20512;-66
2022/01/03 08:20:29;;;;;;;;;;;8.70;99.90;;;;;;5133686;27;20013;-65
2022/01/03 08:22:55;;;;;;;;;;;8.70;99.90;;;;;;5129790;27;20487;-59
2022/01/03 08:25:20;;;;;;;;;;;8.80;99.90;;;;;;5134540;27;19931;-57
2022/01/03 08:27:46;;;;;;;;;;;8.80;99.90;;;;;;5144769;27;20038;-56
2022/01/03 08:30:12;;;;;;;;;;;8.80;99.90;;;;;;5139337;27;20372;-58
2022/01/03 08:32:38;;;;;;;;;;;8.80;99.90;;;;;;5135588;27;19972;-59
2022/01/03 08:35:04;;;;;;;;;;;8.90;99.90;;;;;;5129644;27;19927;-56
2022/01/03 08:37:29;;;;;;;;;;;8.90;99.90;;;;;;5139002;27;19934;-56
2022/01/03 08:39:55;;;;;;;;;;;9.20;99.90;;;;;;5144003;27;19934;-56
2022/01/03 08:42:21;;;;;;;;;;;9.00;99.90;;;;;;5128015;27;19970;-57
2022/01/03 08:44:47;;;;;;;;;;;9.00;99.90;;;;;;5131297;27;20030;-56
2022/01/03 08:47:12;;;;;;;;;;;9.00;99.90;;;;;;5133017;27;20022;-56
2022/01/03 08:49:41;;;;;;;;;;;9.50;99.90;;;;;;5135242;27;19980;-56
2022/01/03 08:52:06;;;;;;;;;;;9.10;99.90;;;;;;5134889;27;19931;-57
2022/01/03 08:54:32;;;;;;;;;;;9.10;99.90;;;;;;5135511;27;20415;-57
2022/01/03 08:56:58;;;;;;;;;;;9.20;99.90;;;;;;5129483;27;20019;-57
2022/01/03 08:59:25;;;;;;;;;;;9.40;99.90;;;;;;5133537;27;20068;-57
2022/01/03 09:01:50;;;;;;;;;;;9.30;99.90;;;;;;5140112;27;19934;-59
2022/01/03 09:04:16;;;;;;;;;;;9.30;99.90;;;;;;5132714;27;19931;-59
2022/01/03 09:06:41;;;;;;;;;;;9.30;99.90;;;;;;5133172;27;19950;-60
2022/01/03 09:09:07;;;;;;;;;;;9.40;99.90;;;;;;5134675;27;20396;-57
2022/01/03 09:11:33;;;;;;;;;;;9.40;99.90;;;;;;5136388;27;19966;-56
2022/01/03 09:13:58;;;;;;;;;;;9.40;99.90;;;;;;5134856;27;20011;-56
2022/01/03 09:16:24;;;;;;;;;;;9.50;99.90;;;;;;5136956;27;19950;-56
2022/01/03 09:18:49;;;;;;;;;;;9.50;99.90;;;;;;5131203;27;20384;-57
2022/01/03 09:21:15;;;;;;;;;;;9.50;99.90;;;;;;5131562;27;19950;-58
2022/01/03 09:23:46;;;;;;;;;;;9.60;99.90;;;;;;5138526;27;19927;-60
2022/01/03 09:28:56;;;;;;;;;;;9.60;99.90;;;;;;5132157;27;19931;-67
2022/01/03 09:31:23;;;;;;;;;;;9.60;99.90;;;;;;5131286;27;19935;-69
2022/01/03 09:33:49;;;;;;;;;;;9.70;99.90;;;;;;5114574;27;20050;-64
2022/01/03 09:36:15;;;;;;;;;;;10.10;99.90;;;;;;5138979;27;20054;-70
2022/01/03 09:38:40;;;;;;;;;;;9.70;99.90;;;;;;5128663;27;19931;-63
2022/01/03 09:41:07;;;;;;;;;;;9.70;99.90;;;;;;5128129;27;19927;-62
2022/01/03 09:43:39;;;;;;;;;;;9.80;99.90;;;;;;5136654;27;19970;-66
2022/01/03 09:46:05;;;;;;;;;;;9.80;99.90;;;;;;5139619;27;19927;-60
2022/01/03 09:48:32;;;;;;;;;;;10.10;99.90;;;;;;5135503;27;20274;-59
2022/01/03 09:50:59;;;;;;;;;;;9.90;99.90;;;;;;5127270;27;20023;-62
2022/01/03 09:53:25;;;;;;;;;;;10.00;99.90;;;;;;5132402;27;19927;-60
2022/01/03 09:55:51;;;;;;;;;;;10.10;99.90;;;;;;5135103;27;19927;-62
2022/01/03 09:58:17;;;;;;;;;;;10.00;99.90;;;;;;5128337;27;19939;-56
2022/01/03 10:00:43;;;;;;;;;;;10.10;99.90;;;;;;5132763;27;19933;-58
2022/01/03 10:03:08;;;;;;;;;;;10.20;99.90;;;;;;5137372;27;20303;-57
2022/01/03 10:05:34;;;;;;;;;;;10.10;99.90;;;;;;5134609;27;19931;-56
2022/01/03 10:08:00;;;;;;;;;;;10.20;99.90;;;;;;5133721;27;19927;-56
2022/01/03 10:10:27;;;;;;;;;;;10.20;99.90;;;;;;5139814;27;19923;-57
2022/01/03 10:12:53;;;;;;;;;;;10.20;99.90;;;;;;5128542;27;20443;-58
2022/01/03 10:15:19;;;;;;;;;;;10.30;99.90;;;;;;5134080;27;19927;-57
2022/01/03 10:17:47;;;;;;;;;;;10.30;99.90;;;;;;5138334;27;19928;-57
2022/01/03 10:20:13;;;;;;;;;;;10.40;99.90;;;;;;5136526;27;19927;-56
2022/01/03 10:22:39;;;;;;;;;;;10.40;99.90;;;;;;5128182;27;19924;-57
2022/01/03 10:25:14;;;;;;;;;;;10.40;99.90;;;;;;5133326;27;19927;-59
2022/01/03 10:27:47;;;;;;;;;;;10.60;99.90;;;;;;5138858;27;20183;-58
2022/01/03 10:30:13;;;;;;;;;;;10.60;99.90;;;;;;5139880;27;20405;-58
2022/01/03 10:32:39;;;;;;;;;;;10.50;99.90;;;;;;5133104;27;19966;-57
2022/01/03 10:35:15;;;;;;;;;;;10.70;99.90;;;;;;5134756;27;19975;-56
2022/01/03 10:37:40;;;;;;;;;;;10.60;99.90;;;;;;5126933;27;19927;-57
2022/01/03 10:40:19;;;;;;;;;;;10.70;99.90;;;;;;5136402;27;19939;-58
2022/01/03 10:42:46;;;;;;;;;;;10.80;99.90;;;;;;5127759;27;20376;-57
2022/01/03 10:45:12;;;;;;;;;;;10.70;99.90;;;;;;5128731;27;20396;-60
2022/01/03 10:47:41;;;;;;;;;;;10.70;99.90;;;;;;5130625;27;19935;-59
2022/01/03 10:50:17;;;;;;;;;;;10.70;99.90;;;;;;5142113;27;19931;-59
2022/01/03 10:52:43;;;;;;;;;;;10.80;99.90;;;;;;5131677;27;19966;-57
2022/01/03 10:55:13;;;;;;;;;;;11.00;99.90;;;;;;5137679;27;20426;-60
2022/01/03 10:57:56;;;;;;;;;;;11.00;99.90;;;;;;5127005;27;19927;-56
2022/01/03 11:00:28;;;;;;;;;;;10.90;99.90;;;;;;5135181;27;20005;-59
2022/01/03 11:03:13;;;;;;;;;;;11.00;99.90;;;;;;5129020;27;20283;-59
2022/01/03 11:05:40;;;;;;;;;;;10.90;99.90;;;;;;5140238;27;19927;-58
2022/01/03 11:10:44;;;;;;;;;;;10.80;99.90;;;;;;5133805;27;19934;-56
2022/01/03 11:13:11;;;;;;;;;;;10.70;99.90;;;;;;5126889;27;20425;-59
2022/01/03 11:15:38;;;;;;;;;;;10.70;99.90;;;;;;5146991;27;19954;-58
2022/01/03 11:18:12;;;;;;;;;;;10.70;99.90;;;;;;5133725;27;19935;-58
2022/01/03 11:20:39;;;;;;;;;;;10.80;99.90;;;;;;5134936;27;20277;-57
2022/01/03 11:23:04;;;;;;;;;;;10.80;99.90;;;;;;5129256;27;19927;-60
2022/01/03 11:25:31;;;;;;;;;;;10.80;99.90;;;;;;5139970;27;19927;-58
2022/01/03 11:27:56;;;;;;;;;;;10.90;99.90;;;;;;5135805;27;19937;-59
2022/01/03 11:30:22;;;;;;;;;;;10.90;99.90;;;;;;5128163;27;20323;-63
2022/01/03 11:32:49;;;;;;;;;;;11.00;99.90;;;;;;5134493;27;20360;-66
2022/01/03 11:35:15;;;;;;;;;;;11.00;99.90;;;;;;5130502;27;19935;-58
2022/01/03 11:37:44;;;;;;;;;;;11.00;99.90;;;;;;5131960;27;19927;-61
2022/01/03 11:40:10;;;;;;;;;;;11.00;99.90;;;;;;5128494;27;19931;-60
2022/01/03 11:42:36;;;;;;;;;;;10.90;99.90;;;;;;5129790;27;19943;-58
2022/01/03 11:45:02;;;;;;;;;;;10.90;99.90;;;;;;5124420;27;19947;-64
2022/01/03 11:47:28;;;;;;;;;;;11.00;99.90;;;;;;5124012;27;19955;-68
2022/01/03 11:49:53;;;;;;;;;;;10.90;99.90;;;;;;5127345;27;20403;-63
2022/01/03 11:52:20;;;;;;;;;;;11.00;99.90;;;;;;5124846;27;20793;-65
2022/01/03 11:54:46;;;;;;;;;;;11.10;99.90;;;;;;5122777;27;20388;-57
2022/01/03 11:57:39;;;;;;;;;;;11.10;99.90;;;;;;5125449;27;20363;-59
2022/01/03 12:05:46;;;;;;;;;;;11.30;99.90;;;;;;5123985;27;20327;-65
2022/01/03 12:08:38;;;;;;;;;;;11.30;99.90;;;;;;5126124;27;19942;-59
2022/01/03 12:11:21;;;;;;;;;;;11.40;99.90;;;;;;5126947;27;19967;-59
2022/01/03 12:13:54;;;;;;;;;;;11.30;99.90;;;;;;5130094;27;19953;-60
2022/01/03 12:16:36;;;;;;;;;;;11.20;99.90;;;;;;5128680;27;19931;-56
2022/01/03 12:19:03;;;;;;;;;;;11.30;99.90;;;;;;5126077;27;19950;-62
2022/01/03 12:21:47;;;;;;;;;;;11.20;99.90;;;;;;5129389;27;20297;-59
2022/01/03 12:24:31;;;;;;;;;;;11.10;99.90;;;;;;5133615;27;19935;-56
2022/01/03 12:27:12;;;;;;;;;;;11.10;99.90;;;;;;5126359;27;19978;-57
2022/01/03 12:29:53;;;;;;;;;;;11.10;99.90;;;;;;5134028;27;19934;-59
2022/01/03 12:32:32;;;;;;;;;;;11.00;99.90;;;;;;5130555;27;19934;-61
2022/01/03 12:35:13;;;;;;;;;;;11.10;99.90;;;;;;5135996;27;19928;-58
2022/01/03 12:37:40;;;;;;;;;;;11.10;99.90;;;;;;5140904;27;19931;-58
2022/01/03 12:40:05;;;;;;;;;;;11.00;99.90;;;;;;5141539;27;19951;-57
2022/01/03 12:42:48;;;;;;;;;;;11.10;99.90;;;;;;5127059;27;20228;-57
2022/01/03 12:45:14;;;;;;;;;;;11.10;99.90;;;;;;5138801;27;19935;-56
2022/01/03 12:47:39;;;;;;;;;;;11.10;99.90;;;;;;5125615;27;20479;-57
2022/01/03 12:50:21;;;;;;;;;;;11.10;99.90;;;;;;5130439;27;19927;-57
2022/01/03 12:52:47;;;;;;;;;;;11.20;99.90;;;;;;5130369;27;19966;-56
2022/01/03 12:55:36;;;;;;;;;;;11.20;99.90;;;;;;5131380;27;20464;-56
2022/01/03 12:58:02;;;;;;;;;;;11.10;99.90;;;;;;5119162;27;19953;-56
2022/01/03 13:00:44;;;;;;;;;;;11.20;99.90;;;;;;5139543;27;19927;-58
2022/01/03 13:03:29;;;;;;;;;;;11.10;99.90;;;;;;5136957;27;20384;-56
2022/01/03 13:06:06;;;;;;;;;;;11.10;99.90;;;;;;5136193;27;19926;-56
2022/01/03 13:08:32;;;;;;;;;;;11.30;99.90;;;;;;5126772;27;20279;-56
2022/01/03 13:11:02;;;;;;;;;;;11.40;99.90;;;;;;5126202;27;19927;-56
2022/01/03 13:13:28;;;;;;;;;;;11.40;99.90;;;;;;5128046;27;20550;-57
2022/01/03 13:15:54;;;;;;;;;;;11.30;99.90;;;;;;5127172;27;20058;-56
2022/01/03 13:18:20;;;;;;;;;;;11.30;99.90;;;;;;5139432;27;20440;-57
2022/01/03 13:20:55;;;;;;;;;;;11.30;99.90;;;;;;5128603;27;19928;-57
2022/01/03 13:23:21;;;;;;;;;;;11.30;99.90;;;;;;5124434;27;19970;-58
2022/01/03 13:25:46;;;;;;;;;;;11.20;99.90;;;;;;5131202;27;20017;-59
2022/01/03 13:28:13;;;;;;;;;;;11.10;99.90;;;;;;5139232;27;20213;-58
2022/01/03 13:30:57;;;;;;;;;;;11.00;99.90;;;;;;5132332;27;20628;-58
2022/01/03 13:33:24;;;;;;;;;;;10.90;99.90;;;;;;5135215;27;20022;-59
2022/01/03 13:36:02;;;;;;;;;;;10.90;99.90;;;;;;5127786;27;19928;-56
2022/01/03 13:38:28;;;;;;;;;;;10.90;99.90;;;;;;5130864;27;19927;-56
2022/01/03 13:41:14;;;;;;;;;;;10.80;99.90;;;;;;5138087;27;19986;-58
2022/01/03 13:43:43;;;;;;;;;;;10.80;99.90;;;;;;5143087;27;19927;-57
2022/01/03 13:51:19;;;;;;;;;;;10.60;99.90;;;;;;5128775;27;19980;-57
2022/01/03 13:53:51;;;;;;;;;;;10.60;99.90;;;;;;5125835;27;19946;-57
2022/01/03 13:56:17;;;;;;;;;;;10.50;99.90;;;;;;5129417;27;19931;-56
2022/01/03 13:58:44;;;;;;;;;;;10.60;99.90;;;;;;5128500;27;19928;-57
2022/01/03 14:01:09;;;;;;;;;;;10.50;99.90;;;;;;5128505;27;19934;-58
2022/01/03 14:03:36;;;;;;;;;;;10.50;99.90;;;;;;5140498;27;19927;-66
2022/01/03 14:06:18;;;;;;;;;;;10.50;99.90;;;;;;5134941;27;20388;-62
2022/01/03 14:08:45;;;;;;;;;;;10.40;99.90;;;;;;5130364;27;19927;-63
2022/01/03 14:11:17;;;;;;;;;;;10.40;99.90;;;;;;5129896;27;20349;-60
2022/01/03 14:13:43;;;;;;;;;;;10.30;99.90;;;;;;5123028;27;20253;-61
2022/01/03 14:16:10;;;;;;;;;;;10.30;99.90;;;;;;5123442;27;20589;-60
2022/01/03 14:18:40;;;;;;;;;;;10.20;99.90;;;;;;5126932;27;19927;-58
2022/01/03 14:21:06;;;;;;;;;;;10.20;99.90;;;;;;5129075;27;19927;-58
2022/01/03 14:23:32;;;;;;;;;;;10.10;99.90;;;;;;5124019;27;19927;-58
2022/01/03 14:26:30;;;;;;;;;;;10.10;99.90;;;;;;5126256;27;19977;-59
2022/01/03 14:29:16;;;;;;;;;;;10.00;99.90;;;;;;5108423;27;20562;-57
2022/01/03 14:31:42;;;;;;;;;;;9.90;99.90;;;;;;5126968;27;20021;-57
2022/01/03 14:34:08;;;;;;;;;;;9.90;99.90;;;;;;5131182;27;19927;-56
2022/01/03 14:36:40;;;;;;;;;;;10.00;99.90;;;;;;5125060;27;19927;-59
2022/01/03 14:39:06;;;;;;;;;;;10.00;99.90;;;;;;5134254;27;19961;-57
2022/01/03 14:41:32;;;;;;;;;;;9.90;99.90;;;;;;5130063;27;20363;-56
2022/01/03 14:43:59;;;;;;;;;;;9.90;99.90;;;;;;5131596;27;20356;-56
2022/01/03 14:46:29;;;;;;;;;;;9.80;99.90;;;;;;5127883;27;19933;-59
2022/01/03 14:48:55;;;;;;;;;;;9.80;99.90;;;;;;5136684;27;19979;-58
2022/01/03 14:51:21;;;;;;;;;;;10.10;99.90;;;;;;5126857;27;19931;-57